SAS45C EKCH-EGCC
Flight info
| Callsign | SAS45C |
|---|---|
| Flight time | 1h 33m |
| Altitude | 40000 |
| Route | ODDON DCT LESRA DCT ROPAL DCT TILNI |
| Aircraft | A359/H-SDE2E3GHIJ3J4J5LM1ORWXY/LB1D1 |
Departure
| Time | 2026-05-06 17:57 |
|---|---|
| Airport | Copenhagen Kastrup Airport (EKCH) |
Arrival
| Time | 2026-05-06 19:30 |
|---|---|
| Airport | Manchester Airport (EGCC) |
| Time | Latitude | Longitude | Altitude | Speed | Heading |
|---|---|---|---|---|---|
| 2026-05-06 17:20 | 55.62638 | 12.65080 | 26 ft | 0 kts | 285° |
| 2026-05-06 17:43 | 55.62636 | 12.65094 | 27 ft | 2 kts | 287° |
| 2026-05-06 17:43 | 55.62632 | 12.65122 | 25 ft | 2 kts | 269° |
| 2026-05-06 17:44 | 55.62634 | 12.65151 | 32 ft | 2 kts | 257° |
| 2026-05-06 17:44 | 55.62639 | 12.65179 | 31 ft | 2 kts | 251° |
| 2026-05-06 17:44 | 55.62645 | 12.65207 | 31 ft | 2 kts | 246° |
| 2026-05-06 17:44 | 55.62651 | 12.65229 | 30 ft | 1 kts | 242° |
| 2026-05-06 17:45 | 55.62652 | 12.65234 | 30 ft | 0 kts | 240° |
| 2026-05-06 17:50 | 55.62651 | 12.65231 | 30 ft | 2 kts | 237° |
| 2026-05-06 17:50 | 55.62615 | 12.65185 | 29 ft | 10 kts | 201° |
| 2026-05-06 17:50 | 55.62548 | 12.65187 | 28 ft | 11 kts | 168° |
| 2026-05-06 17:50 | 55.62476 | 12.65200 | 28 ft | 10 kts | 191° |
| 2026-05-06 17:51 | 55.62399 | 12.65191 | 27 ft | 12 kts | 178° |
| 2026-05-06 17:51 | 55.62307 | 12.65195 | 28 ft | 15 kts | 177° |
| 2026-05-06 17:51 | 55.62206 | 12.65173 | 29 ft | 12 kts | 208° |
| 2026-05-06 17:51 | 55.62137 | 12.65089 | 30 ft | 13 kts | 214° |
| 2026-05-06 17:52 | 55.62046 | 12.64991 | 27 ft | 17 kts | 212° |
| 2026-05-06 17:52 | 55.61939 | 12.64872 | 27 ft | 20 kts | 212° |
| 2026-05-06 17:52 | 55.61825 | 12.64736 | 29 ft | 19 kts | 214° |
| 2026-05-06 17:52 | 55.61714 | 12.64610 | 27 ft | 20 kts | 212° |
| 2026-05-06 17:53 | 55.61601 | 12.64481 | 29 ft | 20 kts | 212° |
| 2026-05-06 17:53 | 55.61482 | 12.64344 | 29 ft | 21 kts | 214° |
| 2026-05-06 17:53 | 55.61349 | 12.64192 | 31 ft | 24 kts | 213° |
| 2026-05-06 17:53 | 55.61206 | 12.64024 | 27 ft | 25 kts | 213° |
| 2026-05-06 17:54 | 55.61061 | 12.63857 | 30 ft | 25 kts | 213° |
| 2026-05-06 17:54 | 55.60912 | 12.63687 | 27 ft | 26 kts | 213° |
| 2026-05-06 17:54 | 55.60756 | 12.63506 | 29 ft | 28 kts | 213° |
| 2026-05-06 17:54 | 55.60598 | 12.63308 | 28 ft | 28 kts | 221° |
| 2026-05-06 17:55 | 55.60482 | 12.63131 | 28 ft | 18 kts | 216° |
| 2026-05-06 17:55 | 55.60393 | 12.63170 | 29 ft | 12 kts | 132° |
| 2026-05-06 17:55 | 55.60345 | 12.63284 | 31 ft | 9 kts | 114° |
| 2026-05-06 17:55 | 55.60352 | 12.63372 | 32 ft | 7 kts | 55° |
| 2026-05-06 17:56 | 55.60379 | 12.63418 | 30 ft | 0 kts | 42° |
| 2026-05-06 17:56 | 55.60386 | 12.63428 | 30 ft | 0 kts | 42° |
| 2026-05-06 17:56 | 55.60397 | 12.63446 | 29 ft | 5 kts | 41° |
| 2026-05-06 17:56 | 55.60518 | 12.63633 | 28 ft | 55 kts | 42° |
| 2026-05-06 17:57 | 55.61064 | 12.64478 | 29 ft | 150 kts | 42° |
| 2026-05-06 17:57 | 55.62052 | 12.65902 | 278 ft | 211 kts | 40° |
| 2026-05-06 17:57 | 55.63273 | 12.67616 | 1203 ft | 242 kts | 38° |
| 2026-05-06 17:57 | 55.64649 | 12.69555 | 1898 ft | 256 kts | 39° |
| 2026-05-06 17:58 | 55.66334 | 12.70580 | 2722 ft | 260 kts | 4° |
| 2026-05-06 17:58 | 55.68126 | 12.70400 | 3563 ft | 262 kts | 356° |
| 2026-05-06 17:58 | 55.69949 | 12.70079 | 4358 ft | 262 kts | 357° |
| 2026-05-06 17:58 | 55.71776 | 12.69810 | 4856 ft | 263 kts | 358° |
| 2026-05-06 17:59 | 55.73613 | 12.69579 | 5070 ft | 263 kts | 358° |
| 2026-05-06 17:59 | 55.75424 | 12.69370 | 5289 ft | 264 kts | 358° |
| 2026-05-06 17:59 | 55.77270 | 12.69169 | 5825 ft | 266 kts | 358° |
| 2026-05-06 17:59 | 55.79104 | 12.68768 | 6680 ft | 265 kts | 348° |
| 2026-05-06 18:00 | 55.80786 | 12.67500 | 7449 ft | 268 kts | 327° |
| 2026-05-06 18:00 | 55.82077 | 12.65091 | 8163 ft | 273 kts | 301° |
| 2026-05-06 18:00 | 55.82599 | 12.61833 | 8938 ft | 276 kts | 274° |
| 2026-05-06 18:00 | 55.82508 | 12.58454 | 9713 ft | 279 kts | 263° |
| 2026-05-06 18:01 | 55.82145 | 12.55034 | 10333 ft | 286 kts | 258° |
| 2026-05-06 18:01 | 55.81649 | 12.51489 | 10658 ft | 302 kts | 256° |
| 2026-05-06 18:01 | 55.81103 | 12.47766 | 10977 ft | 317 kts | 256° |
| 2026-05-06 18:01 | 55.80562 | 12.43919 | 11259 ft | 332 kts | 257° |
| 2026-05-06 18:02 | 55.80027 | 12.39848 | 11585 ft | 343 kts | 258° |
| 2026-05-06 18:02 | 55.79507 | 12.35654 | 12082 ft | 349 kts | 258° |
| 2026-05-06 18:02 | 55.79006 | 12.31457 | 12632 ft | 352 kts | 258° |
| 2026-05-06 18:02 | 55.78500 | 12.27159 | 13198 ft | 355 kts | 258° |
| 2026-05-06 18:03 | 55.78165 | 12.24310 | 13568 ft | 357 kts | 258° |
| 2026-05-06 18:03 | 55.77652 | 12.19954 | 14082 ft | 360 kts | 258° |
| 2026-05-06 18:03 | 55.77132 | 12.15579 | 14584 ft | 362 kts | 258° |
| 2026-05-06 18:03 | 55.76443 | 12.09747 | 15265 ft | 364 kts | 259° |
| 2026-05-06 18:04 | 55.76201 | 12.06766 | 15602 ft | 365 kts | 263° |
| 2026-05-06 18:04 | 55.75931 | 12.02257 | 16118 ft | 367 kts | 264° |
| 2026-05-06 18:04 | 55.75703 | 11.97730 | 16640 ft | 369 kts | 265° |
| 2026-05-06 18:04 | 55.75501 | 11.93207 | 17147 ft | 371 kts | 265° |
| 2026-05-06 18:05 | 55.75306 | 11.88623 | 17669 ft | 373 kts | 265° |
| 2026-05-06 18:05 | 55.75110 | 11.84008 | 18170 ft | 375 kts | 265° |
| 2026-05-06 18:05 | 55.74908 | 11.79351 | 18604 ft | 377 kts | 265° |
| 2026-05-06 18:05 | 55.74705 | 11.74735 | 19030 ft | 378 kts | 265° |
| 2026-05-06 18:06 | 55.74495 | 11.70067 | 19448 ft | 380 kts | 265° |
| 2026-05-06 18:06 | 55.74279 | 11.65366 | 19861 ft | 382 kts | 264° |
| 2026-05-06 18:06 | 55.74063 | 11.60703 | 20271 ft | 384 kts | 264° |
| 2026-05-06 18:06 | 55.73841 | 11.55962 | 20675 ft | 386 kts | 264° |
| 2026-05-06 18:07 | 55.73615 | 11.51183 | 21087 ft | 388 kts | 264° |
| 2026-05-06 18:07 | 55.73388 | 11.46398 | 21493 ft | 389 kts | 264° |
| 2026-05-06 18:07 | 55.73157 | 11.41574 | 21904 ft | 391 kts | 264° |
| 2026-05-06 18:07 | 55.72928 | 11.36833 | 22292 ft | 393 kts | 264° |
| 2026-05-06 18:08 | 55.72690 | 11.31949 | 22683 ft | 394 kts | 263° |
| 2026-05-06 18:08 | 55.72450 | 11.27070 | 23067 ft | 396 kts | 263° |
| 2026-05-06 18:08 | 55.72212 | 11.22262 | 23442 ft | 398 kts | 263° |
| 2026-05-06 18:08 | 55.71965 | 11.17322 | 23761 ft | 400 kts | 263° |
| 2026-05-06 18:09 | 55.71719 | 11.12429 | 24044 ft | 402 kts | 263° |
| 2026-05-06 18:09 | 55.71466 | 11.07447 | 24347 ft | 404 kts | 263° |
| 2026-05-06 18:09 | 55.71211 | 11.02455 | 24650 ft | 406 kts | 263° |
| 2026-05-06 18:09 | 55.70956 | 10.97498 | 24963 ft | 408 kts | 263° |
| 2026-05-06 18:10 | 55.70695 | 10.92467 | 25274 ft | 410 kts | 262° |
| 2026-05-06 18:10 | 55.70429 | 10.87392 | 25598 ft | 412 kts | 262° |
| 2026-05-06 18:10 | 55.70161 | 10.82321 | 25941 ft | 413 kts | 262° |
| 2026-05-06 18:10 | 55.69892 | 10.77279 | 26263 ft | 416 kts | 262° |
| 2026-05-06 18:11 | 55.69617 | 10.72160 | 26619 ft | 417 kts | 262° |
| 2026-05-06 18:11 | 55.69338 | 10.67002 | 26986 ft | 420 kts | 262° |
| 2026-05-06 18:11 | 55.69057 | 10.61841 | 27362 ft | 422 kts | 262° |
| 2026-05-06 18:11 | 55.68774 | 10.56688 | 27747 ft | 424 kts | 262° |
| 2026-05-06 18:12 | 55.68485 | 10.51465 | 28148 ft | 426 kts | 262° |
| 2026-05-06 18:12 | 55.68192 | 10.46207 | 28567 ft | 428 kts | 262° |
| 2026-05-06 18:12 | 55.67898 | 10.40985 | 28970 ft | 431 kts | 261° |
| 2026-05-06 18:12 | 55.67598 | 10.35685 | 29378 ft | 433 kts | 261° |
| 2026-05-06 18:13 | 55.67293 | 10.30346 | 29796 ft | 436 kts | 261° |
| 2026-05-06 18:13 | 55.66983 | 10.24950 | 30175 ft | 438 kts | 261° |
| 2026-05-06 18:13 | 55.66674 | 10.19629 | 30515 ft | 440 kts | 261° |
| 2026-05-06 18:13 | 55.66357 | 10.14197 | 30837 ft | 443 kts | 261° |
| 2026-05-06 18:14 | 55.66034 | 10.08719 | 31159 ft | 446 kts | 261° |
| 2026-05-06 18:14 | 55.65713 | 10.03307 | 31474 ft | 448 kts | 261° |
| 2026-05-06 18:14 | 55.65384 | 9.97789 | 31785 ft | 450 kts | 261° |
| 2026-05-06 18:14 | 55.65049 | 9.92219 | 32099 ft | 453 kts | 261° |
| 2026-05-06 18:15 | 55.64714 | 9.86701 | 32370 ft | 455 kts | 261° |
| 2026-05-06 18:15 | 55.64373 | 9.81131 | 32650 ft | 457 kts | 261° |
| 2026-05-06 18:15 | 55.64025 | 9.75485 | 33010 ft | 457 kts | 261° |
| 2026-05-06 18:15 | 55.63678 | 9.69886 | 33455 ft | 456 kts | 262° |
| 2026-05-06 18:16 | 55.63333 | 9.64357 | 33873 ft | 455 kts | 262° |
| 2026-05-06 18:16 | 55.62981 | 9.58771 | 34217 ft | 455 kts | 262° |
| 2026-05-06 18:16 | 55.62627 | 9.53192 | 34546 ft | 455 kts | 262° |
| 2026-05-06 18:16 | 55.62275 | 9.47684 | 34857 ft | 455 kts | 262° |
| 2026-05-06 18:17 | 55.61916 | 9.42115 | 35163 ft | 455 kts | 262° |
| 2026-05-06 18:17 | 55.61557 | 9.36587 | 35475 ft | 455 kts | 262° |
| 2026-05-06 18:17 | 55.61193 | 9.31013 | 35783 ft | 455 kts | 262° |
| 2026-05-06 18:17 | 55.60827 | 9.25444 | 36075 ft | 455 kts | 262° |
| 2026-05-06 18:18 | 55.60457 | 9.19866 | 36354 ft | 456 kts | 262° |
| 2026-05-06 18:18 | 55.60089 | 9.14345 | 36632 ft | 456 kts | 262° |
| 2026-05-06 18:18 | 55.59714 | 9.08780 | 36916 ft | 457 kts | 262° |
| 2026-05-06 18:18 | 55.59336 | 9.03197 | 37195 ft | 457 kts | 262° |
| 2026-05-06 18:19 | 55.58954 | 8.97594 | 37470 ft | 457 kts | 262° |
| 2026-05-06 18:19 | 55.58571 | 8.92011 | 37738 ft | 458 kts | 262° |
| 2026-05-06 18:19 | 55.58183 | 8.86398 | 38006 ft | 458 kts | 262° |
| 2026-05-06 18:19 | 55.57797 | 8.80849 | 38265 ft | 459 kts | 261° |
| 2026-05-06 18:20 | 55.57404 | 8.75237 | 38520 ft | 459 kts | 261° |
| 2026-05-06 18:20 | 55.57009 | 8.69620 | 38722 ft | 460 kts | 261° |
| 2026-05-06 18:20 | 55.56609 | 8.63989 | 38901 ft | 460 kts | 261° |
| 2026-05-06 18:20 | 55.56214 | 8.58458 | 39076 ft | 461 kts | 261° |
| 2026-05-06 18:21 | 55.55809 | 8.52820 | 39251 ft | 461 kts | 261° |
| 2026-05-06 18:21 | 55.55400 | 8.47168 | 39427 ft | 461 kts | 261° |
| 2026-05-06 18:21 | 55.54995 | 8.41608 | 39597 ft | 462 kts | 261° |
| 2026-05-06 18:21 | 55.54580 | 8.35945 | 39760 ft | 462 kts | 261° |
| 2026-05-06 18:22 | 55.54161 | 8.30268 | 39905 ft | 463 kts | 261° |
| 2026-05-06 18:22 | 55.53747 | 8.24698 | 39955 ft | 464 kts | 261° |
| 2026-05-06 18:22 | 55.52899 | 8.13380 | 39947 ft | 463 kts | 261° |
| 2026-05-06 18:23 | 55.52045 | 8.02139 | 39953 ft | 463 kts | 261° |
| 2026-05-06 18:23 | 55.51180 | 7.90885 | 39966 ft | 463 kts | 261° |
| 2026-05-06 18:24 | 55.50303 | 7.79613 | 39976 ft | 463 kts | 261° |
| 2026-05-06 18:24 | 55.49420 | 7.68405 | 39978 ft | 463 kts | 261° |
| 2026-05-06 18:25 | 55.48523 | 7.57154 | 39978 ft | 463 kts | 261° |
| 2026-05-06 18:25 | 55.47611 | 7.45850 | 39983 ft | 463 kts | 261° |
| 2026-05-06 18:26 | 55.46696 | 7.34644 | 39983 ft | 463 kts | 261° |
| 2026-05-06 18:26 | 55.45771 | 7.23442 | 39985 ft | 463 kts | 261° |
| 2026-05-06 18:27 | 55.44828 | 7.12163 | 39990 ft | 464 kts | 261° |
| 2026-05-06 18:27 | 55.43878 | 7.00913 | 39992 ft | 464 kts | 261° |
| 2026-05-06 18:28 | 55.42918 | 6.89688 | 39993 ft | 464 kts | 260° |
| 2026-05-06 18:28 | 55.41953 | 6.78518 | 39997 ft | 464 kts | 260° |
| 2026-05-06 18:29 | 55.40976 | 6.67333 | 39998 ft | 464 kts | 260° |
| 2026-05-06 18:29 | 55.39981 | 6.56073 | 40001 ft | 464 kts | 260° |
| 2026-05-06 18:30 | 55.38982 | 6.44889 | 40001 ft | 464 kts | 260° |
| 2026-05-06 18:30 | 55.37969 | 6.33656 | 40004 ft | 464 kts | 260° |
| 2026-05-06 18:31 | 55.36947 | 6.22457 | 40007 ft | 464 kts | 260° |
| 2026-05-06 18:31 | 55.35917 | 6.11285 | 40011 ft | 464 kts | 260° |
| 2026-05-06 18:32 | 55.34878 | 6.00123 | 40011 ft | 465 kts | 260° |
| 2026-05-06 18:32 | 55.33820 | 5.88884 | 40013 ft | 465 kts | 260° |
| 2026-05-06 18:33 | 55.32758 | 5.77711 | 40016 ft | 465 kts | 259° |
| 2026-05-06 18:33 | 55.31682 | 5.66510 | 40019 ft | 465 kts | 259° |
| 2026-05-06 18:34 | 55.30597 | 5.55322 | 40020 ft | 465 kts | 259° |
| 2026-05-06 18:34 | 55.29502 | 5.44148 | 40025 ft | 465 kts | 259° |
| 2026-05-06 18:35 | 55.28399 | 5.32997 | 40023 ft | 465 kts | 259° |
| 2026-05-06 18:35 | 55.27279 | 5.21779 | 40029 ft | 465 kts | 259° |
| 2026-05-06 18:36 | 55.26155 | 5.10644 | 40031 ft | 465 kts | 259° |
| 2026-05-06 18:36 | 55.25021 | 4.99504 | 40028 ft | 465 kts | 259° |
| 2026-05-06 18:37 | 55.24065 | 4.90200 | 40026 ft | 465 kts | 259° |
| 2026-05-06 18:37 | 55.22717 | 4.77201 | 40025 ft | 466 kts | 259° |
| 2026-05-06 18:38 | 55.21543 | 4.65994 | 40024 ft | 466 kts | 259° |
| 2026-05-06 18:38 | 55.20367 | 4.54865 | 40026 ft | 466 kts | 259° |
| 2026-05-06 18:39 | 55.19181 | 4.43751 | 40029 ft | 466 kts | 259° |
| 2026-05-06 18:40 | 55.17378 | 4.27042 | 40032 ft | 466 kts | 259° |
| 2026-05-06 18:40 | 55.16164 | 4.15926 | 40039 ft | 466 kts | 259° |
| 2026-05-06 18:41 | 55.14938 | 4.04785 | 40043 ft | 466 kts | 259° |
| 2026-05-06 18:41 | 55.13707 | 3.93701 | 40046 ft | 466 kts | 259° |
| 2026-05-06 18:42 | 55.12792 | 3.82495 | 40046 ft | 466 kts | 263° |
| 2026-05-06 18:42 | 55.11962 | 3.71223 | 40049 ft | 466 kts | 262° |
| 2026-05-06 18:43 | 55.11090 | 3.60008 | 40051 ft | 466 kts | 262° |
| 2026-05-06 18:43 | 55.10199 | 3.48829 | 40049 ft | 466 kts | 262° |
| 2026-05-06 18:44 | 55.09291 | 3.37611 | 40051 ft | 466 kts | 262° |
| 2026-05-06 18:44 | 55.08370 | 3.26373 | 40053 ft | 467 kts | 262° |
| 2026-05-06 18:45 | 55.07444 | 3.15212 | 40054 ft | 467 kts | 262° |
| 2026-05-06 18:45 | 55.06498 | 3.03947 | 40056 ft | 467 kts | 262° |
| 2026-05-06 18:46 | 55.05549 | 2.92760 | 40056 ft | 467 kts | 262° |
| 2026-05-06 18:46 | 55.04590 | 2.81598 | 40059 ft | 467 kts | 261° |
| 2026-05-06 18:47 | 55.03614 | 2.70356 | 40060 ft | 467 kts | 261° |
| 2026-05-06 18:47 | 55.02634 | 2.59189 | 40062 ft | 467 kts | 261° |
| 2026-05-06 18:48 | 55.01639 | 2.47973 | 40058 ft | 467 kts | 261° |
| 2026-05-06 18:48 | 55.00637 | 2.36805 | 40056 ft | 467 kts | 261° |
| 2026-05-06 18:49 | 54.99624 | 2.25633 | 40061 ft | 467 kts | 261° |
| 2026-05-06 18:49 | 54.98769 | 2.16298 | 40064 ft | 467 kts | 261° |
| 2026-05-06 18:50 | 54.97743 | 2.05190 | 40064 ft | 468 kts | 261° |
| 2026-05-06 18:50 | 54.96697 | 1.93987 | 40065 ft | 468 kts | 261° |
| 2026-05-06 18:51 | 54.95641 | 1.82798 | 40065 ft | 468 kts | 261° |
| 2026-05-06 18:51 | 54.94578 | 1.71647 | 40063 ft | 468 kts | 261° |
| 2026-05-06 18:52 | 54.93509 | 1.60546 | 40068 ft | 468 kts | 261° |
| 2026-05-06 18:52 | 54.92421 | 1.49354 | 40067 ft | 468 kts | 261° |
| 2026-05-06 18:53 | 54.91331 | 1.38265 | 40071 ft | 468 kts | 261° |
| 2026-05-06 18:53 | 54.90221 | 1.27073 | 40070 ft | 468 kts | 261° |
| 2026-05-06 18:54 | 54.89109 | 1.15972 | 40068 ft | 468 kts | 261° |
| 2026-05-06 18:54 | 54.87984 | 1.04845 | 40070 ft | 468 kts | 260° |
| 2026-05-06 18:55 | 54.86846 | 0.93701 | 40071 ft | 468 kts | 260° |
| 2026-05-06 18:55 | 54.85696 | 0.82535 | 40066 ft | 468 kts | 260° |
| 2026-05-06 18:56 | 54.84542 | 0.71449 | 40070 ft | 468 kts | 260° |
| 2026-05-06 18:56 | 54.83377 | 0.60359 | 40067 ft | 468 kts | 260° |
| 2026-05-06 18:56 | 54.82792 | 0.54822 | 39875 ft | 468 kts | 260° |
| 2026-05-06 18:57 | 54.82200 | 0.49254 | 39642 ft | 468 kts | 260° |
| 2026-05-06 18:57 | 54.81606 | 0.43684 | 39418 ft | 468 kts | 260° |
| 2026-05-06 18:57 | 54.81016 | 0.38186 | 39197 ft | 468 kts | 260° |
| 2026-05-06 18:57 | 54.80415 | 0.32599 | 38977 ft | 468 kts | 260° |
| 2026-05-06 18:58 | 54.79816 | 0.27064 | 38700 ft | 467 kts | 260° |
| 2026-05-06 18:58 | 54.79214 | 0.21527 | 38283 ft | 467 kts | 260° |
| 2026-05-06 18:58 | 54.78613 | 0.16022 | 37874 ft | 467 kts | 260° |
| 2026-05-06 18:58 | 54.78004 | 0.10468 | 37458 ft | 468 kts | 260° |
| 2026-05-06 18:59 | 54.77399 | 0.04983 | 37072 ft | 468 kts | 260° |
| 2026-05-06 18:59 | 54.76784 | -0.00574 | 36684 ft | 468 kts | 260° |
| 2026-05-06 18:59 | 54.76165 | -0.06150 | 36301 ft | 468 kts | 260° |
| 2026-05-06 18:59 | 54.75554 | -0.11622 | 35918 ft | 468 kts | 260° |
| 2026-05-06 19:00 | 54.74928 | -0.17208 | 35546 ft | 469 kts | 261° |
| 2026-05-06 19:00 | 54.74312 | -0.22678 | 35180 ft | 469 kts | 261° |
| 2026-05-06 19:00 | 54.73683 | -0.28242 | 34815 ft | 469 kts | 261° |
| 2026-05-06 19:00 | 54.73053 | -0.33786 | 34457 ft | 469 kts | 261° |
| 2026-05-06 19:01 | 54.72419 | -0.39345 | 34105 ft | 470 kts | 261° |
| 2026-05-06 19:01 | 54.71791 | -0.44826 | 33694 ft | 470 kts | 261° |
| 2026-05-06 19:01 | 54.71152 | -0.50385 | 33276 ft | 471 kts | 261° |
| 2026-05-06 19:01 | 54.70508 | -0.55972 | 32859 ft | 471 kts | 261° |
| 2026-05-06 19:02 | 54.69864 | -0.61507 | 32454 ft | 475 kts | 261° |
| 2026-05-06 19:02 | 54.69211 | -0.67136 | 32058 ft | 478 kts | 261° |
| 2026-05-06 19:02 | 54.68561 | -0.72696 | 31664 ft | 476 kts | 261° |
| 2026-05-06 19:02 | 54.67900 | -0.78327 | 31289 ft | 475 kts | 261° |
| 2026-05-06 19:03 | 54.67237 | -0.83941 | 30908 ft | 475 kts | 261° |
| 2026-05-06 19:03 | 54.66581 | -0.89473 | 30536 ft | 475 kts | 261° |
| 2026-05-06 19:03 | 54.65917 | -0.95043 | 30152 ft | 469 kts | 261° |
| 2026-05-06 19:03 | 54.65249 | -1.00640 | 29738 ft | 476 kts | 261° |
| 2026-05-06 19:04 | 54.64586 | -1.06171 | 29319 ft | 473 kts | 260° |
| 2026-05-06 19:04 | 54.63914 | -1.11744 | 28879 ft | 469 kts | 260° |
| 2026-05-06 19:04 | 54.63246 | -1.17264 | 28460 ft | 466 kts | 260° |
| 2026-05-06 19:04 | 54.62803 | -1.20905 | 28186 ft | 464 kts | 260° |
| 2026-05-06 19:05 | 54.61923 | -1.28127 | 27644 ft | 460 kts | 260° |
| 2026-05-06 19:05 | 54.61271 | -1.33451 | 27239 ft | 457 kts | 260° |
| 2026-05-06 19:05 | 54.60611 | -1.38824 | 26851 ft | 455 kts | 259° |
| 2026-05-06 19:05 | 54.59950 | -1.44181 | 26461 ft | 452 kts | 259° |
| 2026-05-06 19:06 | 54.59313 | -1.49321 | 26091 ft | 450 kts | 259° |
| 2026-05-06 19:06 | 54.58655 | -1.54614 | 25707 ft | 447 kts | 259° |
| 2026-05-06 19:06 | 54.58008 | -1.59798 | 25333 ft | 445 kts | 259° |
| 2026-05-06 19:06 | 54.57353 | -1.65021 | 25102 ft | 443 kts | 259° |
| 2026-05-06 19:07 | 54.56706 | -1.70171 | 25068 ft | 442 kts | 259° |
| 2026-05-06 19:07 | 54.56017 | -1.75355 | 25063 ft | 442 kts | 256° |
| 2026-05-06 19:07 | 54.54877 | -1.80304 | 25059 ft | 445 kts | 243° |
| 2026-05-06 19:07 | 54.53030 | -1.84548 | 25061 ft | 449 kts | 227° |
| 2026-05-06 19:08 | 54.50530 | -1.87854 | 25037 ft | 454 kts | 212° |
| 2026-05-06 19:08 | 54.47612 | -1.89988 | 24417 ft | 458 kts | 197° |
| 2026-05-06 19:08 | 54.44503 | -1.90677 | 23722 ft | 453 kts | 181° |
| 2026-05-06 19:08 | 54.41325 | -1.90467 | 23080 ft | 455 kts | 181° |
| 2026-05-06 19:09 | 54.38190 | -1.90894 | 22479 ft | 446 kts | 191° |
| 2026-05-06 19:09 | 54.35170 | -1.91724 | 21926 ft | 441 kts | 192° |
| 2026-05-06 19:09 | 54.32141 | -1.92627 | 21367 ft | 437 kts | 192° |
| 2026-05-06 19:09 | 54.29183 | -1.93528 | 20830 ft | 433 kts | 192° |
| 2026-05-06 19:10 | 54.26227 | -1.94487 | 20279 ft | 428 kts | 195° |
| 2026-05-06 19:10 | 54.23449 | -1.96223 | 19756 ft | 420 kts | 211° |
| 2026-05-06 19:10 | 54.21164 | -1.99120 | 19237 ft | 412 kts | 227° |
| 2026-05-06 19:10 | 54.19375 | -2.02904 | 18730 ft | 406 kts | 236° |
| 2026-05-06 19:11 | 54.17769 | -2.06872 | 18197 ft | 403 kts | 237° |
| 2026-05-06 19:11 | 54.16206 | -2.10744 | 17666 ft | 399 kts | 237° |
| 2026-05-06 19:11 | 54.14609 | -2.14617 | 17143 ft | 397 kts | 235° |
| 2026-05-06 19:11 | 54.12914 | -2.18351 | 16659 ft | 395 kts | 233° |
| 2026-05-06 19:12 | 54.11197 | -2.22028 | 16158 ft | 393 kts | 233° |
| 2026-05-06 19:12 | 54.09519 | -2.25639 | 15664 ft | 391 kts | 233° |
| 2026-05-06 19:12 | 54.07825 | -2.29302 | 15175 ft | 389 kts | 233° |
| 2026-05-06 19:12 | 54.06177 | -2.32873 | 14764 ft | 384 kts | 233° |
| 2026-05-06 19:13 | 54.04549 | -2.36400 | 14503 ft | 370 kts | 233° |
| 2026-05-06 19:13 | 54.02965 | -2.39770 | 14241 ft | 358 kts | 231° |
| 2026-05-06 19:13 | 54.01070 | -2.42377 | 13966 ft | 351 kts | 209° |
| 2026-05-06 19:13 | 53.98773 | -2.43489 | 13605 ft | 335 kts | 185° |
| 2026-05-06 19:14 | 53.96520 | -2.43075 | 13081 ft | 319 kts | 169° |
| 2026-05-06 19:14 | 53.94401 | -2.42261 | 12273 ft | 312 kts | 169° |
| 2026-05-06 19:14 | 53.92313 | -2.41544 | 11715 ft | 299 kts | 171° |
| 2026-05-06 19:14 | 53.90260 | -2.40923 | 11307 ft | 301 kts | 172° |
| 2026-05-06 19:15 | 53.88185 | -2.40342 | 10927 ft | 299 kts | 173° |
| 2026-05-06 19:15 | 53.86155 | -2.39799 | 10556 ft | 297 kts | 173° |
| 2026-05-06 19:15 | 53.84110 | -2.39266 | 10184 ft | 295 kts | 173° |
| 2026-05-06 19:15 | 53.82071 | -2.38743 | 9792 ft | 294 kts | 173° |
| 2026-05-06 19:16 | 53.80076 | -2.38234 | 9411 ft | 291 kts | 173° |
| 2026-05-06 19:16 | 53.78082 | -2.37730 | 9044 ft | 288 kts | 173° |
| 2026-05-06 19:16 | 53.76123 | -2.37236 | 8680 ft | 287 kts | 173° |
| 2026-05-06 19:16 | 53.74147 | -2.36739 | 8316 ft | 285 kts | 173° |
| 2026-05-06 19:17 | 53.72201 | -2.36250 | 7972 ft | 283 kts | 173° |
| 2026-05-06 19:17 | 53.70243 | -2.35761 | 7609 ft | 281 kts | 173° |
| 2026-05-06 19:17 | 53.68350 | -2.35287 | 7409 ft | 272 kts | 173° |
| 2026-05-06 19:17 | 53.66482 | -2.35133 | 7183 ft | 263 kts | 189° |
| 2026-05-06 19:18 | 53.64709 | -2.35764 | 6866 ft | 258 kts | 197° |
| 2026-05-06 19:18 | 53.63014 | -2.36538 | 6688 ft | 250 kts | 197° |
| 2026-05-06 19:18 | 53.61329 | -2.37292 | 6621 ft | 249 kts | 197° |
| 2026-05-06 19:18 | 53.59657 | -2.38028 | 6544 ft | 249 kts | 197° |
| 2026-05-06 19:19 | 53.57972 | -2.38761 | 6437 ft | 249 kts | 197° |
| 2026-05-06 19:19 | 53.56302 | -2.39482 | 6324 ft | 249 kts | 197° |
| 2026-05-06 19:19 | 53.54626 | -2.40207 | 6217 ft | 248 kts | 196° |
| 2026-05-06 19:19 | 53.52982 | -2.41128 | 6179 ft | 247 kts | 206° |
| 2026-05-06 19:20 | 53.51454 | -2.42365 | 5961 ft | 245 kts | 209° |
| 2026-05-06 19:20 | 53.49948 | -2.43738 | 5705 ft | 245 kts | 211° |
| 2026-05-06 19:20 | 53.48477 | -2.45175 | 5440 ft | 244 kts | 212° |
| 2026-05-06 19:20 | 53.47042 | -2.46623 | 5195 ft | 243 kts | 212° |
| 2026-05-06 19:21 | 53.45591 | -2.48094 | 5064 ft | 243 kts | 212° |
| 2026-05-06 19:21 | 53.44141 | -2.49553 | 4934 ft | 243 kts | 211° |
| 2026-05-06 19:21 | 53.42703 | -2.50985 | 4793 ft | 243 kts | 211° |
| 2026-05-06 19:21 | 53.41245 | -2.52425 | 4677 ft | 242 kts | 210° |
| 2026-05-06 19:22 | 53.39790 | -2.53852 | 4519 ft | 242 kts | 210° |
| 2026-05-06 19:22 | 53.38350 | -2.55258 | 4402 ft | 235 kts | 210° |
| 2026-05-06 19:22 | 53.36933 | -2.56641 | 4264 ft | 235 kts | 210° |
| 2026-05-06 19:22 | 53.35539 | -2.58000 | 4129 ft | 234 kts | 209° |
| 2026-05-06 19:23 | 53.34121 | -2.59382 | 4025 ft | 234 kts | 209° |
| 2026-05-06 19:23 | 53.32699 | -2.60707 | 3982 ft | 234 kts | 203° |
| 2026-05-06 19:23 | 53.31242 | -2.61890 | 4008 ft | 234 kts | 207° |
| 2026-05-06 19:23 | 53.29838 | -2.63230 | 3992 ft | 227 kts | 210° |
| 2026-05-06 19:24 | 53.28535 | -2.64531 | 3984 ft | 212 kts | 206° |
| 2026-05-06 19:24 | 53.27196 | -2.65289 | 3957 ft | 197 kts | 187° |
| 2026-05-06 19:24 | 53.25856 | -2.65192 | 3826 ft | 191 kts | 164° |
| 2026-05-06 19:24 | 53.24730 | -2.64134 | 3711 ft | 188 kts | 132° |
| 2026-05-06 19:25 | 53.24036 | -2.62285 | 3639 ft | 188 kts | 115° |
| 2026-05-06 19:25 | 53.23501 | -2.60278 | 3504 ft | 189 kts | 113° |
| 2026-05-06 19:25 | 53.23002 | -2.58286 | 3373 ft | 188 kts | 112° |
| 2026-05-06 19:25 | 53.22511 | -2.56268 | 3244 ft | 187 kts | 111° |
| 2026-05-06 19:26 | 53.22385 | -2.54142 | 3113 ft | 190 kts | 76° |
| 2026-05-06 19:26 | 53.23032 | -2.52249 | 3022 ft | 188 kts | 51° |
| 2026-05-06 19:26 | 53.23894 | -2.50685 | 2996 ft | 177 kts | 50° |
| 2026-05-06 19:26 | 53.24661 | -2.49099 | 2970 ft | 176 kts | 56° |
| 2026-05-06 19:27 | 53.25393 | -2.47476 | 2748 ft | 174 kts | 53° |
| 2026-05-06 19:27 | 53.26142 | -2.45940 | 2501 ft | 168 kts | 53° |
| 2026-05-06 19:27 | 53.26855 | -2.44448 | 2274 ft | 157 kts | 54° |
| 2026-05-06 19:27 | 53.27516 | -2.43054 | 2071 ft | 150 kts | 54° |
| 2026-05-06 19:28 | 53.28157 | -2.41708 | 1859 ft | 149 kts | 54° |
| 2026-05-06 19:28 | 53.28809 | -2.40344 | 1657 ft | 150 kts | 54° |
| 2026-05-06 19:28 | 53.29451 | -2.38997 | 1459 ft | 149 kts | 54° |
| 2026-05-06 19:28 | 53.30097 | -2.37641 | 1234 ft | 149 kts | 54° |
| 2026-05-06 19:29 | 53.30742 | -2.36286 | 1022 ft | 148 kts | 53° |
| 2026-05-06 19:29 | 53.31384 | -2.34942 | 827 ft | 154 kts | 54° |
| 2026-05-06 19:29 | 53.32052 | -2.33537 | 640 ft | 149 kts | 53° |
| 2026-05-06 19:29 | 53.32706 | -2.32159 | 409 ft | 152 kts | 53° |
| 2026-05-06 19:30 | 53.33346 | -2.30794 | 237 ft | 147 kts | 53° |
| 2026-05-06 19:30 | 53.33928 | -2.29581 | 222 ft | 106 kts | 54° |
| 2026-05-06 19:30 | 53.34194 | -2.29006 | 226 ft | 21 kts | 51° |
| 2026-05-06 19:30 | 53.34247 | -2.28896 | 226 ft | 28 kts | 50° |
| 2026-05-06 19:31 | 53.34451 | -2.28580 | 230 ft | 37 kts | 18° |
| 2026-05-06 19:31 | 53.34612 | -2.28462 | 237 ft | 22 kts | 21° |
| 2026-05-06 19:31 | 53.34859 | -2.28101 | 240 ft | 27 kts | 56° |
| 2026-05-06 19:32 | 53.34981 | -2.27843 | 238 ft | 29 kts | 47° |
| 2026-05-06 19:32 | 53.35105 | -2.27592 | 244 ft | 28 kts | 50° |
| 2026-05-06 19:32 | 53.35221 | -2.27342 | 250 ft | 26 kts | 52° |
| 2026-05-06 19:32 | 53.35301 | -2.27208 | 249 ft | 9 kts | 25° |
| 2026-05-06 19:33 | 53.35366 | -2.27203 | 249 ft | 11 kts | 339° |
| 2026-05-06 19:33 | 53.35440 | -2.27282 | 249 ft | 14 kts | 320° |
| 2026-05-06 19:33 | 53.35523 | -2.27395 | 249 ft | 18 kts | 321° |
| 2026-05-06 19:33 | 53.35637 | -2.27549 | 247 ft | 23 kts | 321° |
| 2026-05-06 19:34 | 53.35748 | -2.27655 | 248 ft | 17 kts | 336° |
| 2026-05-06 19:34 | 53.35842 | -2.27785 | 246 ft | 20 kts | 312° |
| 2026-05-06 19:34 | 53.35956 | -2.27832 | 245 ft | 17 kts | 8° |
| 2026-05-06 19:34 | 53.36064 | -2.27856 | 247 ft | 12 kts | 324° |
| 2026-05-06 19:35 | 53.36131 | -2.27960 | 248 ft | 15 kts | 315° |
| 2026-05-06 19:35 | 53.36219 | -2.28084 | 248 ft | 17 kts | 347° |
| 2026-05-06 19:35 | 53.36333 | -2.28030 | 248 ft | 18 kts | 36° |
| 2026-05-06 19:35 | 53.36396 | -2.27941 | 243 ft | 14 kts | 23° |
| 2026-05-06 19:36 | 53.36423 | -2.27947 | 240 ft | 8 kts | 346° |
| 2026-05-06 19:36 | 53.36483 | -2.27938 | 239 ft | 10 kts | 32° |
| 2026-05-06 19:36 | 53.36512 | -2.27879 | 238 ft | 1 kts | 47° |
| 2026-05-06 19:36 | 53.36515 | -2.27873 | 240 ft | 0 kts | 47° |